Time;durP1;ratioP1;P1;durP2;ratioP2;P2;SDS_P1;SDS_P2;PMS_P1;PMS_P2;Temp;Humidity;BMP_temperature;BMP_pressure;BME280_temperature;BME280_humidity;BME280_pressure;Samples;Min_cycle;Max_cycle;Signal;HPM_P1;HPM_P2
2019/10/27 00:01:03;;;;;;;3.25;2.90;;;;;;;20.04;59.05;100765.45;;;;-52
2019/10/27 00:04:13;;;;;;;3.37;2.93;;;;;;;20.03;59.07;100764.91;;;;-54
2019/10/27 00:07:03;;;;;;;3.71;2.92;;;;;;;20.03;59.12;100767.98;;;;-54
2019/10/27 00:10:03;;;;;;;3.09;2.79;;;;;;;20.03;59.07;100767.81;;;;-54
2019/10/27 00:13:03;;;;;;;3.45;2.77;;;;;;;20.02;59.01;100767.05;;;;-53
2019/10/27 00:16:03;;;;;;;3.19;2.89;;;;;;;20.01;59.07;100768.17;;;;-53
2019/10/27 00:19:03;;;;;;;3.26;2.85;;;;;;;20.01;59.08;100769.17;;;;-53
2019/10/27 00:22:03;;;;;;;3.08;2.77;;;;;;;20.01;59.12;100770.84;;;;-54
2019/10/27 00:25:03;;;;;;;2.93;2.73;;;;;;;20.00;59.07;100764.70;;;;-54
2019/10/27 00:28:03;;;;;;;3.31;2.80;;;;;;;20.00;59.10;100766.20;;;;-54
2019/10/27 00:31:03;;;;;;;2.92;2.69;;;;;;;20.00;59.13;100772.41;;;;-54
2019/10/27 00:34:42;;;;;;;3.11;2.77;;;;;;;20.00;59.11;100770.97;;;;-54
2019/10/27 00:37:04;;;;;;;3.67;2.90;;;;;;;19.98;59.11;100770.91;;;;-54
2019/10/27 00:40:03;;;;;;;2.92;2.66;;;;;;;19.99;59.10;100767.17;;;;-54
2019/10/27 00:43:03;;;;;;;3.01;2.71;;;;;;;19.98;59.07;100765.21;;;;-54
2019/10/27 00:46:03;;;;;;;2.91;2.69;;;;;;;19.98;59.12;100767.73;;;;-54
2019/10/27 00:49:03;;;;;;;2.78;2.57;;;;;;;19.97;59.10;100767.20;;;;-54
2019/10/27 00:52:03;;;;;;;3.04;2.77;;;;;;;19.97;59.08;100765.49;;;;-54
2019/10/27 00:55:03;;;;;;;2.65;2.45;;;;;;;19.96;59.11;100768.60;;;;-54
2019/10/27 00:58:03;;;;;;;2.96;2.70;;;;;;;19.97;59.11;100769.61;;;;-54
2019/10/27 01:01:03;;;;;;;3.11;2.81;;;;;;;19.95;59.10;100765.87;;;;-54
2019/10/27 01:04:03;;;;;;;2.69;2.49;;;;;;;19.96;59.09;100770.23;;;;-54
2019/10/27 01:07:03;;;;;;;3.23;2.77;;;;;;;19.95;59.12;100773.42;;;;-54
2019/10/27 01:10:03;;;;;;;3.22;2.92;;;;;;;19.95;59.13;100776.00;;;;-54
2019/10/27 01:13:03;;;;;;;2.86;2.66;;;;;;;19.95;59.11;100775.22;;;;-54
2019/10/27 01:16:03;;;;;;;3.25;2.71;;;;;;;19.95;59.15;100776.89;;;;-54
2019/10/27 01:19:03;;;;;;;2.98;2.70;;;;;;;19.95;59.13;100772.27;;;;-54
2019/10/27 01:22:03;;;;;;;3.10;2.80;;;;;;;19.94;59.11;100769.14;;;;-54
2019/10/27 01:25:03;;;;;;;3.09;2.79;;;;;;;19.94;59.10;100765.95;;;;-54
2019/10/27 01:28:03;;;;;;;2.83;2.62;;;;;;;19.94;59.10;100764.45;;;;-54
2019/10/27 01:31:03;;;;;;;2.95;2.75;;;;;;;19.93;59.13;100751.27;;;;-54
2019/10/27 01:34:03;;;;;;;3.42;2.67;;;;;;;19.93;59.14;100754.95;;;;-54
2019/10/27 01:37:03;;;;;;;2.79;2.55;;;;;;;19.93;59.09;100751.59;;;;-54
2019/10/27 01:40:03;;;;;;;3.03;2.73;;;;;;;19.93;59.12;100750.89;;;;-54
2019/10/27 01:43:03;;;;;;;2.79;2.59;;;;;;;19.93;59.11;100748.91;;;;-52
2019/10/27 01:46:03;;;;;;;2.94;2.63;;;;;;;19.93;59.11;100748.24;;;;-53
2019/10/27 01:49:03;;;;;;;2.98;2.69;;;;;;;19.92;59.13;100738.03;;;;-54
2019/10/27 01:52:03;;;;;;;2.89;2.69;;;;;;;19.92;59.15;100732.77;;;;-54
2019/10/27 01:55:03;;;;;;;2.89;2.60;;;;;;;19.91;59.14;100728.03;;;;-54
2019/10/27 01:58:03;;;;;;;2.60;2.40;;;;;;;19.90;59.14;100725.07;;;;-54
2019/10/27 02:01:03;;;;;;;2.97;2.63;;;;;;;19.91;59.14;100728.77;;;;-54
2019/10/27 02:04:03;;;;;;;2.90;2.60;;;;;;;19.91;59.17;100733.50;;;;-54
2019/10/27 02:07:03;;;;;;;2.97;2.63;;;;;;;19.91;59.17;100727.02;;;;-54
2019/10/27 02:10:03;;;;;;;3.10;2.80;;;;;;;19.90;59.17;100724.53;;;;-54
2019/10/27 02:13:03;;;;;;;2.94;2.73;;;;;;;19.89;59.16;100726.70;;;;-54
2019/10/27 02:16:03;;;;;;;2.83;2.61;;;;;;;19.90;59.16;100725.13;;;;-54
2019/10/27 02:19:03;;;;;;;3.00;2.67;;;;;;;19.89;59.17;100726.53;;;;-54
2019/10/27 02:22:03;;;;;;;2.70;2.50;;;;;;;19.89;59.15;100731.80;;;;-54
2019/10/27 02:25:03;;;;;;;2.85;2.65;;;;;;;19.89;59.14;100725.08;;;;-54
2019/10/27 02:28:03;;;;;;;2.95;2.60;;;;;;;19.89;59.12;100727.54;;;;-54
2019/10/27 02:31:03;;;;;;;3.05;2.63;;;;;;;19.89;59.10;100723.14;;;;-54
2019/10/27 02:34:03;;;;;;;2.61;2.41;;;;;;;19.88;59.15;100719.84;;;;-54
2019/10/27 02:37:03;;;;;;;2.77;2.53;;;;;;;19.89;59.13;100717.70;;;;-54
2019/10/27 02:40:03;;;;;;;2.82;2.61;;;;;;;19.87;59.14;100714.77;;;;-54
2019/10/27 02:43:03;;;;;;;2.79;2.59;;;;;;;19.87;59.13;100712.36;;;;-54
2019/10/27 02:46:03;;;;;;;3.07;2.76;;;;;;;19.87;59.11;100709.80;;;;-54
2019/10/27 02:49:03;;;;;;;2.71;2.48;;;;;;;19.87;59.13;100705.78;;;;-54
2019/10/27 02:52:03;;;;;;;3.01;2.71;;;;;;;19.87;59.17;100701.36;;;;-54
2019/10/27 02:55:03;;;;;;;2.61;2.41;;;;;;;19.86;59.14;100703.09;;;;-54
2019/10/27 02:58:03;;;;;;;2.79;2.40;;;;;;;19.87;59.15;100699.69;;;;-54
2019/10/27 03:01:03;;;;;;;2.57;2.37;;;;;;;19.86;59.15;100699.14;;;;-54
2019/10/27 03:04:03;;;;;;;2.97;2.67;;;;;;;19.86;59.15;100692.77;;;;-54
2019/10/27 03:07:03;;;;;;;2.79;2.37;;;;;;;19.86;59.17;100691.66;;;;-54
2019/10/27 03:10:03;;;;;;;2.67;2.47;;;;;;;19.86;59.15;100694.21;;;;-54
2019/10/27 03:13:03;;;;;;;2.71;2.51;;;;;;;19.86;59.15;100692.66;;;;-54
2019/10/27 03:16:11;;;;;;;2.63;2.43;;;;;;;19.86;59.12;100697.06;;;;-54
2019/10/27 03:19:03;;;;;;;2.65;2.45;;;;;;;19.85;59.20;100693.12;;;;-54
2019/10/27 03:22:03;;;;;;;2.67;2.47;;;;;;;19.85;59.20;100702.61;;;;-54
2019/10/27 03:25:03;;;;;;;2.70;2.50;;;;;;;19.85;59.15;100710.32;;;;-54
2019/10/27 03:28:03;;;;;;;2.60;2.40;;;;;;;19.84;59.16;100718.92;;;;-54
2019/10/27 03:31:03;;;;;;;2.67;2.46;;;;;;;19.84;59.17;100723.28;;;;-54
2019/10/27 03:34:03;;;;;;;2.75;2.53;;;;;;;19.85;59.17;100727.41;;;;-54
2019/10/27 03:37:03;;;;;;;2.72;2.52;;;;;;;19.85;59.17;100731.00;;;;-54
2019/10/27 03:40:03;;;;;;;2.58;2.38;;;;;;;19.84;59.17;100738.43;;;;-54
2019/10/27 03:43:03;;;;;;;2.68;2.48;;;;;;;19.84;59.20;100740.38;;;;-54
2019/10/27 03:46:03;;;;;;;2.66;2.43;;;;;;;19.83;59.15;100745.19;;;;-53
2019/10/27 03:49:03;;;;;;;2.60;2.40;;;;;;;19.83;59.15;100750.05;;;;-54
2019/10/27 03:52:03;;;;;;;2.82;2.57;;;;;;;19.84;59.17;100749.31;;;;-54
2019/10/27 03:55:03;;;;;;;2.60;2.40;;;;;;;19.83;59.14;100754.97;;;;-54
2019/10/27 03:58:03;;;;;;;2.55;2.35;;;;;;;19.83;59.16;100749.10;;;;-54
2019/10/27 04:01:03;;;;;;;2.50;2.30;;;;;;;19.83;59.13;100741.39;;;;-54
2019/10/27 04:04:03;;;;;;;2.61;2.41;;;;;;;19.82;59.17;100737.59;;;;-54
2019/10/27 04:07:03;;;;;;;2.61;2.41;;;;;;;19.82;59.13;100733.98;;;;-54
2019/10/27 04:10:03;;;;;;;2.60;2.40;;;;;;;19.82;59.17;100739.00;;;;-54
2019/10/27 04:13:03;;;;;;;2.85;2.33;;;;;;;19.82;59.14;100737.83;;;;-54
2019/10/27 04:16:03;;;;;;;2.67;2.47;;;;;;;19.82;59.15;100744.88;;;;-55
2019/10/27 04:19:03;;;;;;;2.48;2.28;;;;;;;19.81;59.15;100745.59;;;;-54
2019/10/27 04:22:03;;;;;;;2.53;2.33;;;;;;;19.82;59.15;100744.19;;;;-54
2019/10/27 04:25:03;;;;;;;2.59;2.39;;;;;;;19.81;59.15;100737.44;;;;-55
2019/10/27 04:28:03;;;;;;;2.52;2.31;;;;;;;19.81;59.17;100733.75;;;;-54
2019/10/27 04:31:03;;;;;;;2.61;2.41;;;;;;;19.81;59.13;100737.95;;;;-54
2019/10/27 04:34:03;;;;;;;2.63;2.40;;;;;;;19.80;59.15;100734.89;;;;-54
2019/10/27 04:37:04;;;;;;;2.65;2.45;;;;;;;19.80;59.15;100734.89;;;;-54
2019/10/27 04:43:03;;;;;;;2.55;2.35;;;;;;;19.79;59.16;100730.91;;;;-54
2019/10/27 04:46:03;;;;;;;2.49;2.29;;;;;;;19.80;59.15;100731.03;;;;-54
2019/10/27 04:49:03;;;;;;;2.53;2.31;;;;;;;19.80;59.17;100733.20;;;;-54
2019/10/27 04:52:03;;;;;;;2.50;2.30;;;;;;;19.80;59.18;100731.03;;;;-53
2019/10/27 04:55:03;;;;;;;2.63;2.43;;;;;;;19.80;59.17;100726.84;;;;-54
2019/10/27 04:58:03;;;;;;;2.52;2.32;;;;;;;19.79;59.19;100725.95;;;;-53
2019/10/27 05:01:03;;;;;;;2.51;2.31;;;;;;;19.79;59.19;100725.73;;;;-54
2019/10/27 05:04:03;;;;;;;2.55;2.35;;;;;;;19.78;59.15;100724.67;;;;-54
2019/10/27 05:07:03;;;;;;;2.41;2.21;;;;;;;19.80;59.17;100727.34;;;;-53
2019/10/27 05:10:03;;;;;;;2.52;2.32;;;;;;;19.77;59.18;100721.11;;;;-53
2019/10/27 05:13:03;;;;;;;2.52;2.32;;;;;;;19.79;59.17;100725.62;;;;-53
2019/10/27 05:16:03;;;;;;;2.60;2.24;;;;;;;19.79;59.16;100723.27;;;;-53
2019/10/27 05:19:03;;;;;;;2.48;2.28;;;;;;;19.79;59.16;100726.05;;;;-53
2019/10/27 05:22:03;;;;;;;2.45;2.25;;;;;;;19.78;59.14;100724.17;;;;-53
2019/10/27 05:25:03;;;;;;;2.55;2.35;;;;;;;19.78;59.18;100729.92;;;;-54
2019/10/27 05:28:03;;;;;;;2.44;2.24;;;;;;;19.78;59.15;100729.94;;;;-53
2019/10/27 05:31:03;;;;;;;2.49;2.29;;;;;;;19.77;59.20;100722.17;;;;-53
2019/10/27 05:34:03;;;;;;;2.50;2.30;;;;;;;19.78;59.22;100724.39;;;;-53
2019/10/27 05:37:03;;;;;;;2.49;2.29;;;;;;;19.78;59.15;100731.20;;;;-54
2019/10/27 05:40:03;;;;;;;2.48;2.28;;;;;;;19.78;59.20;100731.60;;;;-53
2019/10/27 05:43:03;;;;;;;2.48;2.28;;;;;;;19.79;59.18;100732.25;;;;-54
2019/10/27 05:46:03;;;;;;;2.53;2.33;;;;;;;19.81;59.14;100737.78;;;;-53
2019/10/27 05:49:03;;;;;;;2.49;2.29;;;;;;;19.82;59.12;100738.83;;;;-53
2019/10/27 05:52:03;;;;;;;2.35;2.13;;;;;;;19.82;59.09;100743.03;;;;-53
2019/10/27 05:55:03;;;;;;;2.59;2.25;;;;;;;19.85;59.01;100746.02;;;;-53
2019/10/27 05:58:03;;;;;;;2.34;2.14;;;;;;;19.87;58.97;100748.86;;;;-53
2019/10/27 06:01:03;;;;;;;2.31;2.11;;;;;;;19.90;58.99;100752.30;;;;-54
2019/10/27 06:04:03;;;;;;;2.17;2.07;;;;;;;19.92;58.93;100748.20;;;;-53
2019/10/27 06:07:03;;;;;;;2.40;2.20;;;;;;;19.95;58.98;100749.23;;;;-54
2019/10/27 06:10:03;;;;;;;2.48;2.28;;;;;;;19.97;58.94;100752.22;;;;-53
2019/10/27 06:13:03;;;;;;;2.40;2.20;;;;;;;20.01;59.03;100755.98;;;;-53
2019/10/27 06:16:03;;;;;;;2.33;2.13;;;;;;;20.02;59.07;100755.98;;;;-54
2019/10/27 06:19:03;;;;;;;2.32;2.12;;;;;;;20.05;59.07;100757.45;;;;-53
2019/10/27 06:22:12;;;;;;;2.40;2.20;;;;;;;20.07;59.08;100758.99;;;;-53
2019/10/27 06:25:03;;;;;;;2.50;2.30;;;;;;;20.10;59.11;100764.80;;;;-53
2019/10/27 06:28:03;;;;;;;2.12;1.96;;;;;;;20.12;59.16;100767.41;;;;-54
2019/10/27 06:31:03;;;;;;;2.19;2.01;;;;;;;20.14;59.16;100777.33;;;;-53
2019/10/27 06:34:03;;;;;;;2.27;2.07;;;;;;;20.17;59.18;100784.91;;;;-54
2019/10/27 06:37:03;;;;;;;2.39;2.19;;;;;;;20.18;59.12;100787.81;;;;-53
2019/10/27 06:40:03;;;;;;;5.47;2.25;;;;;;;20.21;59.17;100790.91;;;;-52
2019/10/27 06:43:09;;;;;;;3.16;2.66;;;;;;;20.21;58.41;100792.87;;;;-51
2019/10/27 06:46:03;;;;;;;3.51;2.82;;;;;;;20.23;57.73;100795.75;;;;-54
2019/10/27 06:49:03;;;;;;;7.45;3.34;;;;;;;20.12;56.99;100800.38;;;;-54
2019/10/27 06:52:03;;;;;;;5.43;3.93;;;;;;;20.01;56.25;100804.48;;;;-54
2019/10/27 06:55:03;;;;;;;6.74;3.99;;;;;;;19.95;56.00;100801.64;;;;-51
2019/10/27 06:58:37;;;;;;;5.57;3.96;;;;;;;19.88;55.71;100799.97;;;;-51
2019/10/27 07:01:04;;;;;;;6.35;4.33;;;;;;;19.85;55.62;100800.31;;;;-50
2019/10/27 07:04:03;;;;;;;4.89;4.06;;;;;;;19.81;55.38;100806.50;;;;-50
2019/10/27 07:07:03;;;;;;;5.25;4.40;;;;;;;19.74;55.25;100817.16;;;;-51
2019/10/27 07:10:03;;;;;;;6.57;4.35;;;;;;;19.83;55.73;100815.41;;;;-50
2019/10/27 07:13:03;;;;;;;6.05;4.26;;;;;;;19.89;55.87;100820.86;;;;-50
2019/10/27 07:16:03;;;;;;;5.25;4.09;;;;;;;19.94;56.02;100818.48;;;;-62
2019/10/27 07:19:03;;;;;;;5.90;4.19;;;;;;;19.97;56.20;100819.13;;;;-61
2019/10/27 07:22:03;;;;;;;4.92;3.89;;;;;;;20.00;56.42;100823.04;;;;-61
2019/10/27 07:25:03;;;;;;;4.99;3.69;;;;;;;20.03;56.68;100827.88;;;;-61
2019/10/27 07:28:03;;;;;;;5.33;3.89;;;;;;;20.06;56.77;100833.80;;;;-61
2019/10/27 07:31:03;;;;;;;5.20;3.69;;;;;;;20.10;56.98;100834.14;;;;-62
2019/10/27 07:34:03;;;;;;;5.59;3.71;;;;;;;20.13;57.01;100836.70;;;;-52
2019/10/27 07:37:03;;;;;;;4.02;3.49;;;;;;;20.16;57.10;100836.52;;;;-52
2019/10/27 07:40:03;;;;;;;4.49;3.41;;;;;;;20.18;57.22;100834.66;;;;-52
2019/10/27 07:43:03;;;;;;;4.66;3.47;;;;;;;20.21;57.22;100836.48;;;;-52
2019/10/27 07:46:03;;;;;;;4.05;3.62;;;;;;;20.23;57.25;100840.20;;;;-54
2019/10/27 07:49:03;;;;;;;3.98;3.40;;;;;;;20.26;57.33;100846.05;;;;-51
2019/10/27 07:52:03;;;;;;;4.41;3.41;;;;;;;20.28;57.40;100848.33;;;;-54
2019/10/27 07:55:03;;;;;;;3.99;3.42;;;;;;;20.30;57.36;100852.41;;;;-54
2019/10/27 07:58:03;;;;;;;3.64;3.17;;;;;;;20.32;57.40;100854.95;;;;-52
2019/10/27 08:01:03;;;;;;;3.85;3.17;;;;;;;20.33;57.44;100852.48;;;;-52
2019/10/27 08:04:03;;;;;;;3.53;3.23;;;;;;;20.34;57.49;100850.69;;;;-53
2019/10/27 08:07:03;;;;;;;3.47;3.17;;;;;;;20.35;57.52;100851.08;;;;-54
2019/10/27 08:10:03;;;;;;;3.83;3.23;;;;;;;20.36;57.58;100846.52;;;;-61
2019/10/27 08:14:03;;;;;;;9.01;3.18;;;;;;;20.38;57.59;100851.71;;;;-62
2019/10/27 08:18:03;;;;;;;4.53;3.09;;;;;;;20.39;57.62;100852.77;;;;-51
2019/10/27 08:21:03;;;;;;;4.00;3.19;;;;;;;20.39;57.55;100854.45;;;;-54
2019/10/27 08:24:03;;;;;;;3.55;3.01;;;;;;;20.40;57.64;100851.13;;;;-52
2019/10/27 08:27:03;;;;;;;3.41;3.11;;;;;;;20.40;57.58;100849.23;;;;-52
2019/10/27 08:30:03;;;;;;;3.35;3.05;;;;;;;20.41;57.63;100852.30;;;;-62
2019/10/27 08:33:03;;;;;;;3.18;2.95;;;;;;;20.41;57.66;100858.06;;;;-52
2019/10/27 08:36:03;;;;;;;3.31;3.01;;;;;;;20.42;57.69;100858.95;;;;-54
2019/10/27 08:39:03;;;;;;;3.24;2.91;;;;;;;20.43;57.71;100860.00;;;;-55
2019/10/27 08:42:03;;;;;;;3.45;3.01;;;;;;;20.43;57.67;100858.94;;;;-54
2019/10/27 08:45:03;;;;;;;3.43;3.13;;;;;;;20.43;57.67;100862.02;;;;-52
2019/10/27 08:48:03;;;;;;;3.95;2.99;;;;;;;20.43;57.67;100864.20;;;;-50
2019/10/27 08:51:03;;;;;;;8.37;3.27;;;;;;;20.44;57.79;100867.50;;;;-51
2019/10/27 08:54:03;;;;;;;5.38;3.01;;;;;;;20.48;58.26;100870.44;;;;-56
2019/10/27 08:57:03;;;;;;;4.95;3.07;;;;;;;20.47;58.12;100869.09;;;;-51
2019/10/27 09:00:03;;;;;;;4.84;3.09;;;;;;;20.49;58.12;100874.34;;;;-57
2019/10/27 09:03:03;;;;;;;3.89;3.24;;;;;;;20.50;58.22;100872.75;;;;-51
2019/10/27 09:06:03;;;;;;;4.73;3.16;;;;;;;20.51;58.23;100874.81;;;;-64
2019/10/27 09:09:03;;;;;;;4.36;3.07;;;;;;;20.52;58.08;100871.73;;;;-56
2019/10/27 09:12:03;;;;;;;3.90;2.91;;;;;;;20.53;58.08;100879.10;;;;-62
2019/10/27 09:15:03;;;;;;;3.65;3.11;;;;;;;20.54;58.07;100879.59;;;;-67
2019/10/27 09:18:03;;;;;;;3.53;2.87;;;;;;;20.56;58.03;100879.20;;;;-52
2019/10/27 09:21:03;;;;;;;3.69;2.89;;;;;;;20.57;58.10;100875.99;;;;-53
2019/10/27 09:24:03;;;;;;;3.31;2.93;;;;;;;20.57;58.14;100874.33;;;;-50
2019/10/27 09:27:03;;;;;;;3.71;3.01;;;;;;;20.58;58.16;100876.20;;;;-52
2019/10/27 09:30:03;;;;;;;4.04;2.95;;;;;;;20.59;58.21;100879.17;;;;-53
2019/10/27 09:33:03;;;;;;;3.11;2.81;;;;;;;20.59;58.22;100881.52;;;;-49
2019/10/27 09:36:03;;;;;;;4.19;2.97;;;;;;;20.61;58.56;100885.42;;;;-53
2019/10/27 09:39:04;;;;;;;5.77;2.99;;;;;;;20.64;58.61;100891.94;;;;-49
2019/10/27 09:42:03;;;;;;;3.83;2.91;;;;;;;20.66;58.77;100891.02;;;;-49
2019/10/27 09:45:03;;;;;;;3.10;2.80;;;;;;;20.67;58.66;100889.78;;;;-55
2019/10/27 09:48:03;;;;;;;4.37;2.95;;;;;;;20.69;58.92;100886.52;;;;-52
2019/10/27 09:51:03;;;;;;;4.80;2.91;;;;;;;20.72;59.38;100888.50;;;;-52
2019/10/27 09:54:03;;;;;;;11.05;3.24;;;;;;;20.72;58.59;100892.44;;;;-54
2019/10/27 09:57:03;;;;;;;13.76;3.17;;;;;;;20.72;58.60;100897.00;;;;-52
2019/10/27 10:00:03;;;;;;;10.47;3.31;;;;;;;20.74;58.36;100898.23;;;;-52
2019/10/27 10:03:03;;;;;;;7.57;3.17;;;;;;;20.73;58.13;100901.87;;;;-59
2019/10/27 10:06:03;;;;;;;6.67;3.22;;;;;;;20.75;58.02;100909.12;;;;-61
2019/10/27 10:09:03;;;;;;;8.81;3.25;;;;;;;20.75;58.41;100906.77;;;;-62
2019/10/27 10:12:03;;;;;;;6.44;3.03;;;;;;;20.75;58.44;100906.09;;;;-62
2019/10/27 10:15:03;;;;;;;6.96;2.89;;;;;;;20.75;58.42;100907.27;;;;-60
2019/10/27 10:18:03;;;;;;;5.97;3.07;;;;;;;20.75;58.42;100910.41;;;;-51
2019/10/27 10:21:03;;;;;;;7.37;3.01;;;;;;;20.75;58.42;100911.80;;;;-67
2019/10/27 10:24:03;;;;;;;7.22;3.05;;;;;;;20.74;58.52;100912.54;;;;-52
2019/10/27 10:27:03;;;;;;;4.85;2.86;;;;;;;20.76;58.45;100915.55;;;;-49
2019/10/27 10:30:03;;;;;;;7.24;2.99;;;;;;;20.76;58.37;100915.88;;;;-48
2019/10/27 10:33:03;;;;;;;5.38;2.78;;;;;;;20.75;58.35;100910.97;;;;-47
2019/10/27 10:36:03;;;;;;;4.92;3.03;;;;;;;20.75;58.42;100911.14;;;;-51
2019/10/27 10:39:03;;;;;;;3.45;2.80;;;;;;;20.75;58.36;100908.28;;;;-55
2019/10/27 10:42:03;;;;;;;3.76;2.80;;;;;;;20.75;58.46;100918.46;;;;-63
2019/10/27 10:45:03;;;;;;;4.50;2.79;;;;;;;20.75;58.35;100917.79;;;;-60
2019/10/27 10:48:03;;;;;;;4.75;2.71;;;;;;;20.75;58.41;100920.54;;;;-59
2019/10/27 10:51:03;;;;;;;6.28;3.00;;;;;;;20.75;58.34;100925.47;;;;-54
2019/10/27 10:54:03;;;;;;;4.96;3.07;;;;;;;20.75;58.39;100921.70;;;;-57
2019/10/27 10:57:03;;;;;;;3.91;2.66;;;;;;;20.74;58.39;100916.91;;;;-57
2019/10/27 11:00:03;;;;;;;5.11;3.12;;;;;;;20.73;58.33;100918.53;;;;-56
2019/10/27 11:03:03;;;;;;;5.38;2.78;;;;;;;20.73;58.25;100913.97;;;;-57
2019/10/27 11:06:03;;;;;;;4.43;2.91;;;;;;;20.73;58.24;100908.93;;;;-61
2019/10/27 11:09:03;;;;;;;4.93;2.88;;;;;;;20.72;58.21;100906.62;;;;-57
2019/10/27 11:12:03;;;;;;;4.28;2.70;;;;;;;20.71;58.20;100907.09;;;;-53
2019/10/27 11:15:03;;;;;;;5.49;2.75;;;;;;;20.70;58.20;100905.47;;;;-59
2019/10/27 11:18:03;;;;;;;4.87;2.71;;;;;;;20.71;58.15;100900.64;;;;-59
2019/10/27 11:21:03;;;;;;;3.76;2.88;;;;;;;20.69;58.08;100892.50;;;;-59
2019/10/27 11:24:03;;;;;;;3.99;2.78;;;;;;;20.69;58.09;100891.83;;;;-59
2019/10/27 11:27:03;;;;;;;4.65;2.87;;;;;;;20.68;58.00;100894.64;;;;-59
2019/10/27 11:30:03;;;;;;;3.36;2.71;;;;;;;20.67;58.03;100895.77;;;;-54
2019/10/27 11:33:03;;;;;;;2.99;2.69;;;;;;;20.68;58.01;100897.05;;;;-62
2019/10/27 11:36:03;;;;;;;3.35;2.57;;;;;;;20.67;57.99;100893.64;;;;-62
2019/10/27 11:39:03;;;;;;;3.37;2.55;;;;;;;20.66;58.02;100898.06;;;;-61
2019/10/27 11:42:03;;;;;;;3.63;2.69;;;;;;;20.65;58.01;100892.70;;;;-61
2019/10/27 11:45:03;;;;;;;4.23;2.64;;;;;;;20.66;57.99;100889.23;;;;-61
2019/10/27 11:48:03;;;;;;;3.17;2.59;;;;;;;20.64;57.96;100879.85;;;;-61
2019/10/27 11:51:03;;;;;;;3.33;2.60;;;;;;;20.64;57.96;100873.12;;;;-62
2019/10/27 11:54:03;;;;;;;4.29;2.55;;;;;;;20.63;57.90;100872.59;;;;-61
2019/10/27 11:57:03;;;;;;;3.58;2.68;;;;;;;20.63;57.90;100873.65;;;;-61
2019/10/27 12:00:03;;;;;;;3.85;2.67;;;;;;;20.63;57.93;100874.09;;;;-56
2019/10/27 12:03:03;;;;;;;4.49;2.61;;;;;;;20.62;57.94;100865.31;;;;-54
2019/10/27 12:06:03;;;;;;;4.59;2.63;;;;;;;20.61;57.98;100864.27;;;;-54
2019/10/27 12:09:03;;;;;;;3.16;2.44;;;;;;;20.61;57.94;100858.45;;;;-58
2019/10/27 12:12:03;;;;;;;3.79;2.60;;;;;;;20.61;57.94;100857.72;;;;-59
2019/10/27 12:15:03;;;;;;;3.67;2.54;;;;;;;20.59;57.93;100859.47;;;;-58
2019/10/27 12:18:03;;;;;;;2.63;2.43;;;;;;;20.59;57.91;100858.13;;;;-59
2019/10/27 12:21:03;;;;;;;2.79;2.57;;;;;;;20.58;57.94;100863.05;;;;-59
2019/10/27 12:24:03;;;;;;;3.31;2.51;;;;;;;20.59;57.96;100865.41;;;;-59
2019/10/27 12:27:03;;;;;;;3.95;2.51;;;;;;;20.57;58.01;100861.73;;;;-60
2019/10/27 12:30:03;;;;;;;2.81;2.43;;;;;;;20.60;57.97;100858.58;;;;-50
2019/10/27 12:33:03;;;;;;;3.32;2.55;;;;;;;20.57;58.08;100863.58;;;;-60
2019/10/27 12:36:03;;;;;;;2.95;2.48;;;;;;;20.57;58.23;100869.95;;;;-59
2019/10/27 12:39:04;;;;;;;3.20;2.54;;;;;;;20.58;58.15;100859.66;;;;-59
2019/10/27 12:42:03;;;;;;;2.98;2.46;;;;;;;20.58;58.13;100848.12;;;;-59
2019/10/27 12:45:03;;;;;;;2.67;2.31;;;;;;;20.58;58.07;100848.92;;;;-59
2019/10/27 12:48:03;;;;;;;3.27;2.55;;;;;;;20.57;58.07;100838.74;;;;-68
2019/10/27 12:51:03;;;;;;;3.57;2.44;;;;;;;20.57;58.04;100835.72;;;;-67
2019/10/27 12:54:03;;;;;;;5.09;2.58;;;;;;;20.55;58.08;100849.23;;;;-67
2019/10/27 12:57:03;;;;;;;3.47;2.47;;;;;;;20.56;58.03;100854.80;;;;-67
2019/10/27 13:00:03;;;;;;;3.24;2.51;;;;;;;20.55;58.04;100846.53;;;;-65
2019/10/27 13:03:03;;;;;;;2.61;2.38;;;;;;;20.54;58.09;100848.20;;;;-65
2019/10/27 13:06:03;;;;;;;3.06;2.21;;;;;;;20.54;58.03;100849.88;;;;-65
2019/10/27 13:09:03;;;;;;;2.62;2.41;;;;;;;20.54;58.02;100853.87;;;;-68
2019/10/27 13:12:03;;;;;;;3.71;2.28;;;;;;;20.53;58.03;100866.58;;;;-60
2019/10/27 13:15:03;;;;;;;4.02;2.36;;;;;;;20.53;58.27;100865.00;;;;-51
2019/10/27 13:18:03;;;;;;;2.59;2.35;;;;;;;20.55;58.24;100870.63;;;;-51
2019/10/27 13:21:03;;;;;;;4.14;2.58;;;;;;;20.55;58.39;100882.62;;;;-60
2019/10/27 13:24:03;;;;;;;3.19;2.34;;;;;;;20.56;58.37;100894.41;;;;-52
2019/10/27 13:27:03;;;;;;;2.61;2.39;;;;;;;20.56;58.39;100907.50;;;;-51
2019/10/27 13:30:02;;;;;;;4.28;2.41;;;;;;;20.56;58.40;100881.92;;;;-52
2019/10/27 13:33:03;;;;;;;2.85;2.49;;;;;;;20.55;58.34;100854.77;;;;-51
2019/10/27 13:36:03;;;;;;;2.91;2.58;;;;;;;20.55;58.48;100859.45;;;;-52
2019/10/27 13:39:03;;;;;;;4.49;2.47;;;;;;;20.56;58.37;100876.85;;;;-51
2019/10/27 13:42:03;;;;;;;3.83;2.53;;;;;;;20.55;58.37;100893.12;;;;-51
2019/10/27 13:45:03;;;;;;;4.72;2.59;;;;;;;20.55;58.45;100899.62;;;;-51
2019/10/27 13:48:03;;;;;;;3.11;2.51;;;;;;;20.55;58.43;100897.72;;;;-61
2019/10/27 13:51:03;;;;;;;4.48;2.49;;;;;;;20.54;58.45;100891.33;;;;-52
2019/10/27 13:54:03;;;;;;;3.25;2.42;;;;;;;20.58;58.42;100896.08;;;;-61
2019/10/27 13:57:03;;;;;;;3.12;2.46;;;;;;;20.58;58.37;100886.78;;;;-49
2019/10/27 14:00:03;;;;;;;2.65;2.41;;;;;;;20.58;58.35;100865.57;;;;-55
2019/10/27 14:03:03;;;;;;;3.84;2.68;;;;;;;20.58;58.31;100883.02;;;;-50
2019/10/27 14:06:03;;;;;;;3.73;2.65;;;;;;;20.59;58.30;100889.52;;;;-55
2019/10/27 14:09:03;;;;;;;3.33;2.51;;;;;;;20.58;58.33;100895.11;;;;-50
2019/10/27 14:12:03;;;;;;;2.44;2.23;;;;;;;20.57;58.32;100898.81;;;;-65
2019/10/27 14:15:03;;;;;;;5.51;2.49;;;;;;;20.57;58.41;100892.84;;;;-52
2019/10/27 14:18:03;;;;;;;3.27;2.43;;;;;;;20.58;58.33;100897.69;;;;-49
2019/10/27 14:21:03;;;;;;;3.47;2.50;;;;;;;20.57;58.28;100910.57;;;;-48
2019/10/27 14:24:03;;;;;;;2.77;2.43;;;;;;;20.58;58.34;100909.16;;;;-53
2019/10/27 14:27:03;;;;;;;4.10;2.40;;;;;;;20.58;58.36;100905.84;;;;-52
2019/10/27 14:30:03;;;;;;;3.51;2.61;;;;;;;20.56;58.49;100896.59;;;;-52
2019/10/27 14:33:03;;;;;;;4.16;2.29;;;;;;;20.56;58.42;100893.23;;;;-52
2019/10/27 14:36:03;;;;;;;3.32;2.25;;;;;;;20.55;58.35;100897.89;;;;-52
2019/10/27 14:39:03;;;;;;;3.58;2.22;;;;;;;20.54;58.28;100895.59;;;;-52
2019/10/27 14:42:03;;;;;;;4.42;2.39;;;;;;;20.54;58.24;100884.81;;;;-52
2019/10/27 14:45:03;;;;;;;3.11;2.48;;;;;;;20.53;58.26;100887.32;;;;-52
2019/10/27 14:48:03;;;;;;;2.53;2.32;;;;;;;20.53;58.19;100908.56;;;;-49
2019/10/27 14:51:03;;;;;;;2.89;2.19;;;;;;;20.52;58.16;100922.95;;;;-49
2019/10/27 14:54:03;;;;;;;2.44;2.15;;;;;;;20.51;58.13;100915.31;;;;-49
2019/10/27 14:57:03;;;;;;;2.42;2.19;;;;;;;20.50;58.18;100890.81;;;;-48
2019/10/27 15:00:03;;;;;;;3.03;2.23;;;;;;;20.51;58.13;100878.30;;;;-49
2019/10/27 15:03:03;;;;;;;2.81;2.13;;;;;;;20.50;58.12;100894.23;;;;-49
2019/10/27 15:06:03;;;;;;;2.47;2.16;;;;;;;20.50;58.14;100909.80;;;;-49
2019/10/27 15:09:03;;;;;;;2.97;2.19;;;;;;;20.50;58.11;100942.45;;;;-49
2019/10/27 15:12:03;;;;;;;4.15;2.29;;;;;;;20.50;58.12;100941.84;;;;-49
2019/10/27 15:15:03;;;;;;;3.41;2.22;;;;;;;20.47;58.10;100930.77;;;;-49
2019/10/27 15:18:02;;;;;;;2.55;2.11;;;;;;;20.47;58.05;100940.05;;;;-52
2019/10/27 15:21:03;;;;;;;2.28;2.03;;;;;;;20.47;58.06;100940.16;;;;-52
2019/10/27 15:24:03;;;;;;;3.31;2.25;;;;;;;20.45;58.12;100943.55;;;;-52
2019/10/27 15:27:03;;;;;;;2.93;2.00;;;;;;;20.46;58.05;100954.09;;;;-60
2019/10/27 15:30:03;;;;;;;2.55;2.10;;;;;;;20.44;57.98;100951.59;;;;-61
2019/10/27 15:33:03;;;;;;;2.20;2.00;;;;;;;20.44;58.05;100954.16;;;;-52
2019/10/27 15:36:03;;;;;;;2.51;2.03;;;;;;;20.42;58.09;100923.71;;;;-52
2019/10/27 15:39:03;;;;;;;2.83;2.25;;;;;;;20.43;58.09;100932.37;;;;-51
2019/10/27 15:42:03;;;;;;;3.21;2.10;;;;;;;20.42;58.05;100921.19;;;;-52
2019/10/27 15:45:03;;;;;;;2.33;2.13;;;;;;;20.42;58.07;100904.86;;;;-52
2019/10/27 15:48:03;;;;;;;2.43;2.03;;;;;;;20.41;58.13;100909.73;;;;-49
2019/10/27 15:51:03;;;;;;;2.80;2.18;;;;;;;20.42;58.27;100922.59;;;;-52
2019/10/27 15:54:02;;;;;;;2.21;2.01;;;;;;;20.42;58.24;100900.73;;;;-51
2019/10/27 15:57:03;;;;;;;2.93;2.11;;;;;;;20.44;58.17;100894.95;;;;-53
2019/10/27 16:00:03;;;;;;;2.51;1.96;;;;;;;20.45;58.25;100917.47;;;;-52
2019/10/27 16:03:03;;;;;;;2.18;1.98;;;;;;;20.46;58.24;100953.76;;;;-50
2019/10/27 16:06:03;;;;;;;4.38;2.00;;;;;;;20.46;58.26;100951.81;;;;-59
2019/10/27 16:09:03;;;;;;;2.37;1.99;;;;;;;20.46;58.20;100955.95;;;;-51
2019/10/27 16:12:03;;;;;;;2.81;2.03;;;;;;;20.47;58.33;100972.50;;;;-51
2019/10/27 16:15:03;;;;;;;2.15;1.97;;;;;;;20.48;58.32;100958.23;;;;-49
2019/10/27 16:18:03;;;;;;;3.60;1.89;;;;;;;20.48;58.29;100946.59;;;;-52
2019/10/27 16:21:03;;;;;;;2.50;1.89;;;;;;;20.49;58.20;100964.48;;;;-53
2019/10/27 16:24:03;;;;;;;2.04;1.87;;;;;;;20.51;58.24;100964.70;;;;-51
2019/10/27 16:27:03;;;;;;;2.55;1.83;;;;;;;20.50;58.26;100967.68;;;;-50
2019/10/27 16:30:03;;;;;;;2.35;1.92;;;;;;;20.51;58.28;100978.80;;;;-60
2019/10/27 16:33:07;;;;;;;2.26;1.81;;;;;;;20.52;58.34;100995.63;;;;-56
2019/10/27 16:36:03;;;;;;;2.04;1.85;;;;;;;20.52;58.30;100986.23;;;;-51
2019/10/27 16:39:03;;;;;;;2.42;1.89;;;;;;;20.51;58.41;100988.53;;;;-55
2019/10/27 16:42:03;;;;;;;2.09;1.89;;;;;;;20.50;58.50;100986.84;;;;-66
2019/10/27 16:45:03;;;;;;;2.42;1.77;;;;;;;20.51;58.51;100979.95;;;;-52
2019/10/27 16:48:03;;;;;;;1.97;1.80;;;;;;;20.51;58.42;100996.56;;;;-63